Bookmark and Share
Track history (hours):
 

F/V J. Louis Vincent

Last reported at 2014-Apr-23 17:12 UTC. Time now 2014-Apr-24 11:32 UTC.
Position N 43°24' E 003°42'.

Length 29 m.

Type: Fishing. MMSI: 227146600.

NotesDate/timePositionNaut miles runAvg speedWind from/ knotsBaromVisibWave heightAir tempDewpointWater temp
2014-Apr-23 17:12N 43°24' E 003°42'1 1.9
2014-Apr-23 16:33N 43°23' E 003°42'2 0.8
2014-Apr-23 13:33N 43°21' E 003°44'31 7.7
2014-Apr-23 09:31N 42°55' E 004°06'4 4.1
2014-Apr-23 08:32N 42°54' E 004°12'4 2.1
2014-Apr-23 06:27N 42°55' E 004°18'4 4.5
2014-Apr-23 05:29N 42°58' E 004°14'4 4.4
2014-Apr-23 04:33N 42°60' E 004°09'4 4.3
2014-Apr-23 03:32N 43°02' E 004°04'26 2.0
2014-Apr-22 14:20N 43°23' E 003°42'911.4
2014-Apr-22 13:33N 43°15' E 003°40'21 4.9
2014-Apr-22 09:17N 42°55' E 003°33'3 4.2
2014-Apr-22 08:33N 42°51' E 003°32'4 4.4
2014-Apr-22 07:33N 42°47' E 003°35'  
2014-Apr-17 14:15N 43°24' E 003°42'28 1.0
2014-Apr-16 10:32N 42°56' E 003°40'4 4.2
2014-Apr-16 09:31N 42°53' E 003°35'4 4.0
2014-Apr-16 08:25N 42°50' E 003°31'4 4.5
2014-Apr-16 07:32N 42°48' E 003°27'38 2.3
2014-Apr-15 15:30N 43°24' E 003°42'0 0.0
2014-Apr-15 14:32N 43°24' E 003°42'15 4.9
2014-Apr-15 11:33N 43°09' E 003°45'4 4.3
2014-Apr-15 10:31N 43°06' E 003°40'4 4.5
2014-Apr-15 09:34N 43°03' E 003°36'2 2.3
2014-Apr-15 08:33N 43°03' E 003°33'9 4.4
2014-Apr-15 06:33N 43°09' E 003°42'11 0.6
2014-Apr-14 11:33N 43°19' E 003°44'  

Dump ship's entire track history

sailing weather and tide predictions

F/V J. Louis Vincent — FQBL — position and weather